Time;durP1;ratioP1;P1;durP2;ratioP2;P2;SDS_P1;SDS_P2;PMS_P1;PMS_P2;Temp;Humidity;BMP_temperature;BMP_pressure;BME280_temperature;BME280_humidity;BME280_pressure;Samples;Min_cycle;Max_cycle;Signal;HPM_P1;HPM_P2
2022/09/08 00:00:42;;;;;;;1025.95;937.22;;;22.90;99.90;;;;;;5082989;28;20198;-77
2022/09/08 00:03:12;;;;;;;1004.40;916.65;;;22.90;99.90;;;;;;5080588;28;20213;-77
2022/09/08 00:05:45;;;;;;;1018.75;930.55;;;22.90;99.90;;;;;;5088784;28;20676;-77
2022/09/08 00:08:12;;;;;;;1019.90;931.83;;;22.90;99.90;;;;;;5085127;28;20189;-76
2022/09/08 00:10:39;;;;;;;1018.25;930.20;;;22.80;99.90;;;;;;5087405;28;20566;-77
2022/09/08 00:13:07;;;;;;;1006.85;918.75;;;22.80;99.90;;;;;;5074839;28;20193;-76
2022/09/08 00:15:36;;;;;;;1023.00;934.65;;;22.80;99.90;;;;;;5077607;28;20210;-77
2022/09/08 00:18:02;;;;;;;1010.38;922.50;;;22.80;99.90;;;;;;5083505;28;20189;-77
2022/09/08 00:20:29;;;;;;;1021.70;933.15;;;22.80;99.90;;;;;;5082973;28;20194;-77
2022/09/08 00:22:57;;;;;;;1016.10;927.78;;;22.70;99.90;;;;;;5076201;28;20649;-77
2022/09/08 00:25:24;;;;;;;1007.90;919.97;;;22.70;99.90;;;;;;5087769;28;20186;-78
2022/09/08 00:27:51;;;;;;;1013.00;924.92;;;22.70;99.90;;;;;;5081674;28;20215;-77
2022/09/08 00:30:18;;;;;;;1019.40;931.10;;;22.70;99.90;;;;;;5076678;28;20199;-78
2022/09/08 00:32:45;;;;;;;1018.25;930.22;;;22.70;99.90;;;;;;5081729;28;20640;-78
2022/09/08 00:35:14;;;;;;;1006.08;918.35;;;22.70;99.90;;;;;;5079310;28;20205;-78
2022/09/08 00:37:41;;;;;;;997.35;909.80;;;22.70;99.90;;;;;;5071245;28;20232;-79
2022/09/08 00:40:10;;;;;;;1002.72;914.92;;;22.70;99.90;;;;;;5080651;28;20292;-78
2022/09/08 00:42:37;;;;;;;1013.13;925.05;;;22.60;99.90;;;;;;5077611;28;20190;-79
2022/09/08 00:45:04;;;;;;;1005.30;917.67;;;22.60;99.90;;;;;;5084763;28;20201;-79
2022/09/08 00:47:36;;;;;;;1008.45;920.55;;;22.60;99.90;;;;;;5079998;28;20720;-78
2022/09/08 00:50:07;;;;;;;989.33;901.95;;;22.60;99.90;;;;;;5079872;28;20190;-79
2022/09/08 00:52:39;;;;;;;1011.90;923.88;;;22.60;99.90;;;;;;5084070;28;20193;-79
2022/09/08 00:55:07;;;;;;;1001.08;913.42;;;22.60;99.90;;;;;;5075154;28;20251;-78
2022/09/08 00:57:35;;;;;;;1009.22;921.10;;;22.60;99.90;;;;;;5074161;28;20554;-78
2022/09/08 01:00:05;;;;;;;1013.75;925.50;;;22.60;99.90;;;;;;5071017;28;20189;-79
2022/09/08 01:02:31;;;;;;;1008.88;920.88;;;22.60;99.90;;;;;;5072461;28;20194;-78
2022/09/08 01:05:04;;;;;;;1006.38;918.33;;;22.50;99.90;;;;;;5090125;28;20186;-79
2022/09/08 01:13:29;;;;;;;986.97;899.58;;;22.50;99.90;;;;;;5080657;28;20220;-78
2022/09/08 01:15:57;;;;;;;992.55;904.97;;;22.50;99.90;;;;;;5074386;28;20220;-79
2022/09/08 01:18:24;;;;;;;995.03;907.47;;;22.50;99.90;;;;;;5085625;28;20215;-77
2022/09/08 01:20:56;;;;;;;1008.40;920.42;;;22.50;99.90;;;;;;5084433;28;20209;-79
2022/09/08 01:23:47;;;;;;;992.97;905.28;;;22.50;99.90;;;;;;5085760;28;20560;-79
2022/09/08 01:26:28;;;;;;;994.95;907.35;;;22.40;99.90;;;;;;5077272;28;20197;-79
2022/09/08 01:28:59;;;;;;;983.90;896.75;;;22.40;99.90;;;;;;5091444;28;20669;-77
2022/09/08 01:31:27;;;;;;;1004.40;916.60;;;22.40;99.90;;;;;;5088367;28;20202;-78
2022/09/08 01:33:53;;;;;;;1010.33;922.13;;;22.40;99.90;;;;;;5083325;28;20202;-76
2022/09/08 01:36:20;;;;;;;1003.63;915.67;;;22.40;99.90;;;;;;5078448;28;20218;-77
2022/09/08 01:38:47;;;;;;;984.92;897.58;;;22.40;99.90;;;;;;5093222;28;20560;-77
2022/09/08 01:41:14;;;;;;;1009.40;920.95;;;22.40;99.90;;;;;;5083238;28;20187;-77
2022/09/08 01:43:41;;;;;;;1010.97;922.70;;;22.40;99.90;;;;;;5089677;28;20194;-77
2022/09/08 01:46:09;;;;;;;989.20;901.78;;;22.30;99.90;;;;;;5075679;28;20198;-77
2022/09/08 01:48:36;;;;;;;1003.83;915.80;;;22.30;99.90;;;;;;5085414;28;20220;-77
2022/09/08 01:51:05;;;;;;;1013.88;925.53;;;22.30;99.90;;;;;;5077670;28;20191;-77
2022/09/08 01:53:32;;;;;;;998.85;910.97;;;22.30;99.90;;;;;;5084186;28;20251;-77
2022/09/08 01:55:59;;;;;;;995.42;907.83;;;22.30;99.90;;;;;;5083930;28;20196;-77
2022/09/08 01:58:26;;;;;;;1002.63;914.78;;;22.30;99.90;;;;;;5092460;28;20218;-77
2022/09/08 02:00:53;;;;;;;1003.05;914.95;;;22.30;99.90;;;;;;5084698;28;20641;-77
2022/09/08 02:03:21;;;;;;;1002.08;914.13;;;22.30;99.90;;;;;;5091151;28;20232;-76
2022/09/08 02:05:48;;;;;;;998.20;910.28;;;22.30;99.90;;;;;;5085385;28;20316;-77
2022/09/08 02:08:14;;;;;;;994.92;907.20;;;22.30;99.90;;;;;;5082834;28;20200;-76
2022/09/08 02:10:41;;;;;;;987.15;899.58;;;22.20;99.90;;;;;;5083134;28;20191;-77
2022/09/08 02:13:08;;;;;;;995.92;908.15;;;22.20;99.90;;;;;;5086233;28;20194;-77
2022/09/08 02:15:35;;;;;;;991.33;903.67;;;22.20;99.90;;;;;;5085193;28;20194;-77
2022/09/08 02:18:02;;;;;;;985.85;898.47;;;22.20;99.90;;;;;;5092315;28;20571;-76
2022/09/08 02:20:30;;;;;;;998.20;910.22;;;22.20;99.90;;;;;;5083902;28;20562;-77
2022/09/08 02:22:56;;;;;;;995.85;908.35;;;22.20;99.90;;;;;;5085724;28;20205;-76
2022/09/08 02:25:23;;;;;;;994.22;906.83;;;22.20;99.90;;;;;;5089353;28;20194;-77
2022/09/08 02:27:52;;;;;;;985.95;898.65;;;22.20;99.90;;;;;;5087332;28;20202;-77
2022/09/08 02:30:19;;;;;;;996.40;908.80;;;22.20;99.90;;;;;;5083853;28;20208;-77
2022/09/08 02:32:45;;;;;;;987.38;899.95;;;22.10;99.90;;;;;;5080049;28;20213;-79
2022/09/08 02:35:12;;;;;;;983.58;896.30;;;22.10;99.90;;;;;;5085871;28;20209;-78
2022/09/08 02:37:40;;;;;;;980.58;893.22;;;22.10;99.90;;;;;;5082963;28;20217;-78
2022/09/08 02:40:08;;;;;;;995.97;908.17;;;22.10;99.90;;;;;;5081935;28;20281;-78
2022/09/08 02:42:35;;;;;;;988.97;901.67;;;22.10;99.90;;;;;;5091755;28;20194;-79
2022/09/08 02:45:02;;;;;;;983.05;895.60;;;22.10;99.90;;;;;;5080979;28;20285;-77
2022/09/08 02:47:29;;;;;;;981.17;893.75;;;22.10;99.90;;;;;;5085895;28;20223;-77
2022/09/08 02:49:55;;;;;;;975.03;887.92;;;22.10;99.90;;;;;;5083731;28;20282;-77
2022/09/08 02:52:22;;;;;;;982.42;894.97;;;22.10;99.90;;;;;;5076013;28;20202;-77
2022/09/08 02:54:51;;;;;;;968.17;881.33;;;22.10;99.90;;;;;;5088001;28;20560;-77
2022/09/08 02:57:20;;;;;;;993.70;905.58;;;22.10;99.90;;;;;;5093335;28;20213;-79
2022/09/08 02:59:47;;;;;;;995.85;908.17;;;22.10;99.90;;;;;;5082233;28;20198;-79
2022/09/08 03:02:13;;;;;;;977.60;890.33;;;22.00;99.90;;;;;;5088506;28;20197;-78
2022/09/08 03:04:40;;;;;;;986.83;899.45;;;22.00;99.90;;;;;;5082514;28;20228;-79
2022/09/08 03:07:07;;;;;;;984.40;896.95;;;22.00;99.90;;;;;;5085199;28;20253;-79
2022/09/08 03:09:34;;;;;;;983.03;895.70;;;22.00;99.90;;;;;;5084056;28;20242;-77
2022/09/08 03:12:02;;;;;;;977.88;890.67;;;22.00;99.90;;;;;;5080470;28;20189;-78
2022/09/08 03:14:29;;;;;;;986.05;898.30;;;22.00;99.90;;;;;;5084196;28;20198;-79
2022/09/08 03:16:57;;;;;;;988.95;901.33;;;22.00;99.90;;;;;;5085190;28;20797;-77
2022/09/08 03:19:24;;;;;;;992.15;904.58;;;22.00;99.90;;;;;;5079526;28;20191;-77
2022/09/08 03:21:50;;;;;;;983.15;895.63;;;22.00;99.90;;;;;;5079465;28;20194;-79
2022/09/08 03:24:17;;;;;;;975.83;888.65;;;22.00;99.90;;;;;;5087399;28;20194;-78
2022/09/08 03:26:44;;;;;;;977.25;890.13;;;22.00;99.90;;;;;;5091866;28;20186;-77
2022/09/08 03:29:12;;;;;;;974.00;886.78;;;22.00;99.90;;;;;;5082482;28;20217;-77
2022/09/08 03:31:38;;;;;;;986.28;898.85;;;21.90;99.90;;;;;;5081316;28;20194;-76
2022/09/08 03:34:06;;;;;;;983.85;896.58;;;21.90;99.90;;;;;;5082437;28;20553;-77
2022/09/08 03:36:33;;;;;;;980.40;893.17;;;21.90;99.90;;;;;;5077762;28;20195;-76
2022/09/08 03:39:01;;;;;;;977.50;890.53;;;21.90;99.90;;;;;;5085644;28;20201;-77
2022/09/08 03:41:27;;;;;;;981.28;893.90;;;21.90;99.90;;;;;;5088221;28;20193;-77
2022/09/08 03:43:54;;;;;;;966.75;879.85;;;21.90;99.90;;;;;;5076838;28;20206;-76
2022/09/08 03:46:22;;;;;;;975.58;888.38;;;21.90;99.90;;;;;;5077827;28;20201;-78
2022/09/08 03:48:49;;;;;;;970.65;883.80;;;21.90;99.90;;;;;;5084142;28;20654;-78
2022/09/08 03:51:18;;;;;;;990.13;902.45;;;21.90;99.90;;;;;;5085416;28;20199;-77
2022/09/08 03:53:45;;;;;;;988.30;900.83;;;21.90;99.90;;;;;;5081591;28;20193;-77
2022/09/08 03:56:13;;;;;;;975.70;888.45;;;21.90;99.90;;;;;;5085094;28;20197;-77
2022/09/08 03:58:40;;;;;;;985.47;898.03;;;21.90;99.90;;;;;;5085154;28;20248;-77
2022/09/08 04:01:09;;;;;;;981.92;894.65;;;21.80;99.90;;;;;;5075730;28;20200;-77
2022/09/08 04:03:37;;;;;;;958.35;871.60;;;21.80;99.90;;;;;;5074367;28;20218;-77
2022/09/08 04:06:04;;;;;;;972.90;885.95;;;21.80;99.90;;;;;;5079820;28;20191;-77
2022/09/08 04:08:30;;;;;;;966.10;879.42;;;21.80;99.90;;;;;;5085597;28;20201;-78
2022/09/08 04:10:57;;;;;;;984.22;896.90;;;21.80;99.90;;;;;;5083803;28;20202;-78
2022/09/08 04:13:24;;;;;;;968.08;881.00;;;21.80;99.90;;;;;;5078053;28;20227;-78
2022/09/08 04:15:51;;;;;;;976.47;889.45;;;21.80;99.90;;;;;;5082866;28;20652;-78
2022/09/08 04:18:17;;;;;;;980.70;893.53;;;21.80;99.90;;;;;;5081920;28;20224;-78
2022/09/08 04:20:45;;;;;;;969.17;882.28;;;21.80;99.90;;;;;;5079401;28;20736;-78
2022/09/08 04:23:12;;;;;;;972.83;885.90;;;21.80;99.90;;;;;;5078878;28;20203;-79
2022/09/08 04:25:39;;;;;;;975.08;888.03;;;21.80;99.90;;;;;;5087217;28;20190;-78
2022/09/08 04:28:06;;;;;;;966.60;879.72;;;21.80;99.90;;;;;;5082663;28;20679;-78
2022/09/08 04:30:32;;;;;;;964.35;877.53;;;21.70;99.90;;;;;;5087120;28;20570;-78
2022/09/08 04:32:59;;;;;;;971.00;884.20;;;21.80;99.90;;;;;;5083691;28;20193;-79
2022/09/08 04:35:26;;;;;;;976.28;888.90;;;21.70;99.90;;;;;;5082876;28;20197;-79
2022/09/08 04:37:54;;;;;;;965.13;878.20;;;21.70;99.90;;;;;;5081276;28;20222;-78
2022/09/08 04:40:20;;;;;;;964.63;877.78;;;21.70;99.90;;;;;;5085499;28;20241;-79
2022/09/08 04:42:47;;;;;;;982.58;895.33;;;21.70;99.90;;;;;;5072457;28;20205;-76
2022/09/08 04:45:15;;;;;;;980.35;892.85;;;21.70;99.90;;;;;;5080088;28;20194;-76
2022/09/08 04:47:42;;;;;;;961.58;875.05;;;21.70;99.90;;;;;;5084706;28;20236;-76
2022/09/08 04:50:09;;;;;;;948.38;861.80;;;21.70;99.90;;;;;;5087004;28;20190;-76
2022/09/08 04:52:36;;;;;;;988.03;900.53;;;21.70;99.90;;;;;;5080992;28;20204;-77
2022/09/08 04:55:05;;;;;;;961.35;874.67;;;21.70;99.90;;;;;;5075705;28;20198;-77
2022/09/08 04:57:31;;;;;;;969.05;882.45;;;21.70;99.90;;;;;;5084841;28;20215;-77
2022/09/08 04:59:58;;;;;;;971.55;884.58;;;21.70;99.90;;;;;;5081745;28;20664;-77
2022/09/08 05:02:25;;;;;;;966.60;879.53;;;21.60;99.90;;;;;;5086089;28;20193;-77
2022/09/08 05:04:52;;;;;;;971.47;884.38;;;21.60;99.90;;;;;;5085904;28;20190;-77
2022/09/08 05:07:18;;;;;;;962.05;875.15;;;21.60;99.90;;;;;;5083998;28;20281;-76
2022/09/08 05:09:45;;;;;;;952.45;866.20;;;21.60;99.90;;;;;;5084365;28;20190;-77
2022/09/08 05:12:13;;;;;;;970.28;883.30;;;21.60;99.90;;;;;;5083481;28;20193;-76
2022/09/08 05:14:40;;;;;;;977.17;889.88;;;21.60;99.90;;;;;;5081914;28;20565;-77
2022/09/08 05:17:06;;;;;;;957.22;870.75;;;21.60;99.90;;;;;;5082502;28;20643;-77
2022/09/08 05:19:33;;;;;;;975.40;888.15;;;21.60;99.90;;;;;;5088399;28;20281;-77
2022/09/08 05:22:00;;;;;;;974.38;887.30;;;21.60;99.90;;;;;;5076856;28;20194;-77
2022/09/08 05:24:26;;;;;;;975.70;888.80;;;21.50;99.90;;;;;;5085694;28;20554;-76
2022/09/08 05:26:53;;;;;;;956.55;870.08;;;21.50;99.90;;;;;;5083002;28;20572;-76
2022/09/08 05:29:22;;;;;;;966.10;879.53;;;21.50;99.90;;;;;;5085002;28;20197;-77
2022/09/08 05:31:49;;;;;;;971.72;884.75;;;21.50;99.90;;;;;;5083980;28;20662;-76
2022/09/08 05:34:16;;;;;;;950.78;864.50;;;21.50;99.90;;;;;;5076986;28;20202;-75
2022/09/08 05:36:42;;;;;;;962.65;876.03;;;21.50;99.90;;;;;;5071677;28;20194;-76
2022/09/08 05:39:10;;;;;;;964.85;877.88;;;21.50;99.90;;;;;;5082276;28;20225;-75
2022/09/08 05:41:37;;;;;;;969.70;882.83;;;21.50;99.90;;;;;;5084070;28;20213;-75
2022/09/08 05:44:03;;;;;;;963.15;876.38;;;21.50;99.90;;;;;;5075643;28;20198;-75
2022/09/08 05:46:31;;;;;;;953.63;867.03;;;21.50;99.90;;;;;;5078629;28;20695;-76
2022/09/08 05:48:59;;;;;;;963.53;877.00;;;21.50;99.90;;;;;;5090452;28;20196;-75
2022/09/08 05:51:26;;;;;;;962.15;875.60;;;21.40;99.90;;;;;;5075568;28;20564;-75
2022/09/08 05:53:53;;;;;;;953.83;867.67;;;21.40;99.90;;;;;;5086313;28;20228;-75
2022/09/08 05:56:20;;;;;;;953.70;867.47;;;21.40;99.90;;;;;;5078481;28;20197;-76
2022/09/08 05:58:52;;;;;;;961.17;874.63;;;21.40;99.90;;;;;;5088019;28;20751;-76
2022/09/08 06:01:19;;;;;;;946.20;859.85;;;21.40;99.90;;;;;;5075460;28;20195;-76
2022/09/08 06:03:51;;;;;;;958.50;872.10;;;21.40;99.90;;;;;;5090526;28;20205;-76
2022/09/08 06:06:18;;;;;;;957.13;870.25;;;21.40;99.90;;;;;;5077496;28;20201;-76
2022/09/08 06:08:44;;;;;;;952.28;865.63;;;21.40;99.90;;;;;;5085095;28;20194;-76
2022/09/08 06:11:12;;;;;;;970.90;883.13;;;21.40;99.90;;;;;;5088129;28;20189;-75
2022/09/08 06:13:39;;;;;;;974.50;887.50;;;21.40;99.90;;;;;;5085383;28;20198;-75
2022/09/08 06:16:08;;;;;;;938.25;852.10;;;21.40;99.90;;;;;;5082367;28;20195;-75
2022/09/08 06:18:36;;;;;;;964.17;877.38;;;21.40;99.90;;;;;;5090262;28;20209;-75
2022/09/08 06:21:08;;;;;;;952.00;865.40;;;21.30;99.90;;;;;;5083708;28;20197;-75
2022/09/08 06:23:35;;;;;;;948.30;862.10;;;21.30;99.90;;;;;;5083689;28;20217;-75
2022/09/08 06:26:26;;;;;;;952.65;866.30;;;21.30;99.90;;;;;;5081280;28;20192;-75
2022/09/08 06:28:59;;;;;;;957.58;871.00;;;21.30;99.90;;;;;;5086899;28;20220;-75
2022/09/08 06:31:30;;;;;;;947.90;861.22;;;21.30;99.90;;;;;;5073408;28;20206;-75
2022/09/08 06:34:02;;;;;;;953.42;867.13;;;21.30;99.90;;;;;;5088550;28;20202;-75
2022/09/08 06:36:37;;;;;;;948.50;862.10;;;21.30;99.90;;;;;;5081292;28;20195;-75
2022/09/08 06:39:08;;;;;;;955.30;868.60;;;21.30;99.90;;;;;;5079745;28;20248;-76
2022/09/08 06:41:45;;;;;;;959.20;872.85;;;21.20;99.90;;;;;;5081898;28;20240;-76
2022/09/08 06:44:17;;;;;;;946.58;859.88;;;21.20;99.90;;;;;;5081613;28;20194;-75
2022/09/08 06:46:45;;;;;;;959.10;872.40;;;21.20;99.90;;;;;;5092440;28;20204;-76
2022/09/08 06:49:13;;;;;;;948.97;862.58;;;21.20;99.90;;;;;;5089558;28;20197;-76
2022/09/08 06:51:46;;;;;;;948.47;861.92;;;21.20;99.90;;;;;;5088681;28;20202;-76
2022/09/08 06:54:25;;;;;;;951.97;865.40;;;21.20;99.90;;;;;;5090348;28;20569;-75
2022/09/08 06:57:03;;;;;;;951.28;864.67;;;21.20;99.90;;;;;;5086231;28;20201;-75
2022/09/08 06:59:45;;;;;;;952.25;865.85;;;21.20;99.90;;;;;;5079749;28;20232;-76
2022/09/08 07:02:39;;;;;;;937.53;851.53;;;21.20;99.90;;;;;;5073706;28;20197;-76
2022/09/08 07:05:17;;;;;;;943.35;857.20;;;21.20;99.90;;;;;;5085070;28;20193;-75
2022/09/08 07:07:51;;;;;;;945.83;859.60;;;21.20;99.90;;;;;;5079295;28;20419;-76
2022/09/08 07:10:24;;;;;;;947.90;861.55;;;21.10;99.90;;;;;;5079730;28;20197;-75
2022/09/08 07:12:56;;;;;;;952.63;866.00;;;21.10;99.90;;;;;;5086664;28;20243;-76
2022/09/08 07:15:33;;;;;;;949.58;863.08;;;21.10;99.90;;;;;;5084932;28;20208;-76
2022/09/08 07:18:07;;;;;;;944.83;858.50;;;21.10;99.90;;;;;;5089467;28;20190;-75
2022/09/08 07:20:34;;;;;;;936.90;851.03;;;21.10;99.90;;;;;;5091817;28;20201;-75
2022/09/08 07:23:06;;;;;;;955.63;868.85;;;21.10;99.90;;;;;;5087352;28;20189;-75
2022/09/08 07:25:37;;;;;;;948.60;862.33;;;21.10;99.90;;;;;;5084313;28;20213;-77
2022/09/08 07:28:06;;;;;;;947.95;861.65;;;21.10;99.90;;;;;;5073339;28;20205;-77
2022/09/08 07:30:36;;;;;;;949.42;863.08;;;21.10;99.90;;;;;;5086047;28;20193;-76
2022/09/08 07:33:14;;;;;;;939.97;853.60;;;21.10;99.90;;;;;;5083986;28;20518;-77
2022/09/08 07:35:52;;;;;;;953.03;866.13;;;21.10;99.90;;;;;;5089235;28;20193;-78
2022/09/08 07:38:27;;;;;;;949.78;863.63;;;21.00;99.90;;;;;;5081608;28;20680;-77
2022/09/08 07:40:56;;;;;;;936.80;850.88;;;21.00;99.90;;;;;;5091781;28;20197;-78
2022/09/08 07:43:25;;;;;;;945.42;858.85;;;21.00;99.90;;;;;;5071973;28;20202;-76
2022/09/08 07:46:13;;;;;;;943.65;857.60;;;21.00;99.90;;;;;;5082678;28;20252;-78
2022/09/08 07:48:49;;;;;;;937.45;851.22;;;21.00;99.90;;;;;;5081721;28;20272;-77
2022/09/08 07:51:18;;;;;;;948.20;861.63;;;21.00;99.90;;;;;;5079251;28;20198;-77
2022/09/08 07:54:02;;;;;;;955.10;868.45;;;21.00;99.90;;;;;;5083102;28;20632;-75
2022/09/08 07:56:39;;;;;;;933.78;847.63;;;21.00;99.90;;;;;;5075372;28;20199;-79
2022/09/08 07:59:20;;;;;;;939.65;853.38;;;21.00;99.90;;;;;;5074800;28;20266;-79
2022/09/08 08:02:00;;;;;;;942.00;855.70;;;21.00;99.90;;;;;;5078526;28;20198;-79
2022/09/08 08:04:45;;;;;;;936.88;850.72;;;21.00;99.90;;;;;;5086301;28;20213;-79
2022/09/08 08:07:20;;;;;;;933.40;847.55;;;21.00;99.90;;;;;;5084758;28;20193;-79
2022/09/08 08:09:53;;;;;;;933.80;847.92;;;21.00;99.90;;;;;;5090474;28;20196;-79
2022/09/08 08:12:27;;;;;;;945.92;859.53;;;21.00;99.90;;;;;;5084803;28;20205;-79
2022/09/08 08:15:00;;;;;;;925.78;839.97;;;21.00;99.90;;;;;;5082074;28;20185;-79
2022/09/08 08:17:35;;;;;;;936.10;850.05;;;21.00;99.90;;;;;;5080852;28;20201;-78
2022/09/08 08:20:13;;;;;;;938.80;852.50;;;21.00;99.90;;;;;;5071299;28;20205;-78
2022/09/08 08:23:05;;;;;;;943.03;856.58;;;20.90;99.90;;;;;;5083548;28;20201;-78
2022/09/08 08:25:44;;;;;;;916.83;831.53;;;20.90;99.90;;;;;;5085045;28;20197;-78
2022/09/08 08:28:16;;;;;;;941.05;854.95;;;20.90;99.90;;;;;;5072493;28;20208;-79
2022/09/08 08:30:49;;;;;;;943.90;857.10;;;20.90;99.90;;;;;;5071641;28;20218;-79
2022/09/08 08:33:20;;;;;;;953.13;866.42;;;20.90;99.90;;;;;;5077296;28;20660;-79
2022/09/08 08:35:50;;;;;;;944.92;858.65;;;20.90;99.90;;;;;;5082629;28;20198;-79
2022/09/08 08:38:20;;;;;;;930.83;844.97;;;20.90;99.90;;;;;;5082972;28;20194;-79
2022/09/08 08:40:56;;;;;;;932.17;846.10;;;20.90;99.90;;;;;;5083062;28;20194;-79
2022/09/08 08:43:41;;;;;;;938.65;852.47;;;20.90;99.90;;;;;;5086287;28;20194;-80
2022/09/08 08:46:25;;;;;;;926.53;840.63;;;20.90;99.90;;;;;;5077524;28;20206;-79
2022/09/08 08:49:05;;;;;;;928.97;843.30;;;20.90;99.90;;;;;;5079299;28;20198;-79
2022/09/08 08:51:56;;;;;;;915.25;829.90;;;20.90;99.90;;;;;;5076064;28;20228;-78
2022/09/08 08:54:47;;;;;;;944.63;858.47;;;20.90;99.90;;;;;;5077461;28;20201;-79
2022/09/08 08:57:34;;;;;;;909.03;823.85;;;20.90;99.90;;;;;;5072553;28;20211;-81
2022/09/08 09:00:13;;;;;;;920.53;835.03;;;20.90;99.90;;;;;;5083648;28;20216;-81
2022/09/08 09:03:13;;;;;;;925.42;839.90;;;20.90;99.90;;;;;;5079792;28;20688;-78
2022/09/08 09:06:01;;;;;;;930.30;844.40;;;20.90;99.90;;;;;;5084496;28;20198;-78
2022/09/08 09:09:04;;;;;;;927.30;841.63;;;20.90;99.90;;;;;;5080089;28;20194;-81
2022/09/08 09:12:09;;;;;;;926.03;840.28;;;20.90;99.90;;;;;;5086594;28;20271;-80
2022/09/08 09:15:08;;;;;;;918.85;833.30;;;20.90;99.90;;;;;;5067752;28;20202;-79
2022/09/08 09:17:53;;;;;;;927.67;841.83;;;20.90;99.90;;;;;;5081551;28;20204;-81
2022/09/08 09:20:50;;;;;;;924.17;838.58;;;20.90;99.90;;;;;;5083517;28;20213;-80
2022/09/08 09:23:40;;;;;;;931.63;845.63;;;20.90;99.90;;;;;;5082101;28;20205;-81
2022/09/08 09:26:17;;;;;;;919.55;834.28;;;20.90;99.90;;;;;;5070214;28;20629;-81
2022/09/08 09:28:55;;;;;;;939.22;852.97;;;20.90;99.90;;;;;;5072257;28;20255;-81
2022/09/08 09:31:58;;;;;;;917.90;832.58;;;20.90;99.90;;;;;;5080597;28;20193;-80
2022/09/08 09:34:59;;;;;;;923.78;838.38;;;20.90;99.90;;;;;;5071305;28;20703;-80
2022/09/08 09:37:42;;;;;;;929.40;843.50;;;20.90;99.90;;;;;;5082042;28;20201;-81
2022/09/08 09:40:33;;;;;;;920.60;835.13;;;20.90;99.90;;;;;;5077977;28;20221;-81
2022/09/08 09:43:15;;;;;;;922.05;836.35;;;20.90;99.90;;;;;;5079162;28;20748;-80
2022/09/08 09:46:12;;;;;;;921.35;835.95;;;20.90;99.90;;;;;;5085370;28;20197;-80
2022/09/08 09:49:13;;;;;;;929.72;844.03;;;20.90;99.90;;;;;;5076007;28;20593;-79
2022/09/08 09:51:53;;;;;;;930.20;844.60;;;20.90;99.90;;;;;;5084988;28;20193;-80
2022/09/08 09:54:32;;;;;;;917.40;831.97;;;20.90;99.90;;;;;;5084103;28;20652;-81
2022/09/08 09:57:33;;;;;;;936.85;851.05;;;20.90;99.90;;;;;;5075200;28;20186;-81
2022/09/08 10:00:17;;;;;;;928.80;843.15;;;21.00;99.90;;;;;;5089866;28;20752;-81
2022/09/08 10:03:30;;;;;;;970.92;882.92;;;21.00;99.90;;;;;;5073055;28;20251;-78
2022/09/08 10:06:22;;;;;;;914.15;828.95;;;21.00;99.90;;;;;;5085654;28;20197;-84
2022/09/08 10:09:12;;;;;;;911.97;826.83;;;21.00;99.90;;;;;;5085326;28;20218;-84
2022/09/08 10:12:08;;;;;;;919.90;834.53;;;21.00;99.90;;;;;;5085659;28;20194;-81
2022/09/08 10:15:09;;;;;;;932.20;846.20;;;21.00;99.90;;;;;;5058307;28;20666;-80
2022/09/08 10:18:07;;;;;;;936.05;850.17;;;21.00;99.90;;;;;;5086488;28;20193;-82
2022/09/08 10:21:02;;;;;;;927.38;841.97;;;21.00;99.90;;;;;;5086877;28;20212;-82
2022/09/08 10:24:24;;;;;;;921.60;836.30;;;21.00;99.90;;;;;;5082669;28;20197;-77
2022/09/08 10:27:28;;;;;;;909.03;824.13;;;21.00;99.90;;;;;;5039824;28;20196;-85
2022/09/08 10:30:20;;;;;;;926.83;841.30;;;21.00;99.90;;;;;;5042559;28;20195;-85
2022/09/08 10:33:28;;;;;;;930.10;844.53;;;21.00;99.90;;;;;;5079132;28;20286;-84
2022/09/08 10:36:06;;;;;;;926.10;840.60;;;21.00;99.90;;;;;;5079936;28;20189;-85
2022/09/08 10:38:57;;;;;;;915.13;829.92;;;21.00;99.90;;;;;;5075014;28;20186;-85
2022/09/08 10:41:49;;;;;;;920.40;835.08;;;21.00;99.90;;;;;;5084316;28;20189;-78
2022/09/08 10:44:36;;;;;;;943.92;857.47;;;21.00;99.90;;;;;;5090034;28;20205;-83
2022/09/08 10:47:31;;;;;;;928.00;842.25;;;21.00;99.90;;;;;;5077863;28;20194;-80
2022/09/08 10:50:19;;;;;;;924.30;838.92;;;21.00;99.90;;;;;;5087528;28;20201;-78
2022/09/08 10:53:14;;;;;;;931.90;846.17;;;21.00;99.90;;;;;;5077978;28;20206;-79
2022/09/08 10:55:59;;;;;;;922.75;837.45;;;21.00;99.90;;;;;;5084014;28;20648;-79
2022/09/08 10:59:15;;;;;;;927.67;841.90;;;21.10;99.90;;;;;;5088110;28;20201;-80
2022/09/08 11:02:09;;;;;;;937.60;851.47;;;21.10;99.90;;;;;;5079638;28;20294;-82
2022/09/08 11:05:10;;;;;;;922.55;837.05;;;21.10;99.90;;;;;;5083394;28;20246;-84
2022/09/08 11:08:25;;;;;;;917.75;832.40;;;21.20;99.90;;;;;;5081911;28;20197;-84
2022/09/08 11:11:10;;;;;;;932.03;846.22;;;21.20;99.90;;;;;;5061304;28;20203;-83
2022/09/08 11:13:41;;;;;;;925.80;840.10;;;21.20;99.90;;;;;;5084906;28;20289;-79
2022/09/08 11:16:40;;;;;;;948.80;862.65;;;21.20;99.90;;;;;;5087058;28;20202;-82
2022/09/08 11:19:34;;;;;;;938.20;852.47;;;21.20;99.90;;;;;;5085186;28;20194;-81
2022/09/08 11:22:24;;;;;;;929.33;843.65;;;21.30;99.90;;;;;;5076033;28;20201;-84
2022/09/08 11:25:08;;;;;;;927.50;841.88;;;21.20;99.90;;;;;;5072924;28;20197;-78
2022/09/08 11:27:42;;;;;;;936.20;850.25;;;21.20;99.90;;;;;;5084699;28;20198;-79
2022/09/08 11:30:17;;;;;;;950.42;864.42;;;21.20;99.90;;;;;;5076705;28;20210;-79
2022/09/08 11:32:52;;;;;;;941.70;855.72;;;21.30;99.90;;;;;;5075589;28;20197;-77
2022/09/08 11:35:36;;;;;;;932.00;846.42;;;21.30;99.90;;;;;;5082114;28;20209;-76
2022/09/08 11:38:27;;;;;;;934.75;849.05;;;21.30;99.90;;;;;;5076025;28;20198;-78
2022/09/08 11:41:34;;;;;;;927.40;841.83;;;21.30;99.90;;;;;;5087400;28;20214;-77
2022/09/08 11:44:18;;;;;;;939.65;854.00;;;21.40;99.90;;;;;;5083017;28;20197;-83
2022/09/08 11:47:01;;;;;;;943.05;857.25;;;21.40;99.90;;;;;;5077685;28;20849;-79
2022/09/08 11:50:04;;;;;;;952.85;866.67;;;21.40;99.90;;;;;;5085179;28;20202;-81
2022/09/08 11:52:48;;;;;;;943.42;857.65;;;21.40;99.90;;;;;;5074448;28;20569;-82
2022/09/08 11:55:32;;;;;;;955.50;869.22;;;21.40;99.90;;;;;;5076617;28;20220;-81
2022/09/08 11:58:16;;;;;;;929.90;844.35;;;21.40;99.90;;;;;;5086046;28;20553;-84
2022/09/08 12:01:02;;;;;;;952.55;866.20;;;21.40;99.90;;;;;;5086986;28;20233;-83
2022/09/08 12:03:58;;;;;;;952.30;866.10;;;21.50;99.90;;;;;;5085134;28;20217;-86
2022/09/08 12:06:57;;;;;;;936.10;850.50;;;21.40;99.90;;;;;;5076393;28;20194;-81
2022/09/08 12:09:54;;;;;;;941.10;854.92;;;21.40;99.90;;;;;;5078625;28;20189;-84
2022/09/08 12:12:47;;;;;;;924.40;839.08;;;21.40;99.90;;;;;;5078625;28;20190;-78
2022/09/08 12:15:26;;;;;;;955.00;868.63;;;21.40;99.90;;;;;;5073110;28;20186;-81
2022/09/08 12:18:15;;;;;;;947.50;861.33;;;21.50;99.90;;;;;;5076644;28;20190;-84
2022/09/08 12:21:12;;;;;;;939.45;853.47;;;21.50;99.90;;;;;;5079575;28;20225;-78
2022/09/08 12:23:47;;;;;;;926.08;840.55;;;21.50;99.90;;;;;;5082892;28;20564;-85
2022/09/08 12:26:36;;;;;;;945.80;859.67;;;21.50;99.90;;;;;;5079306;28;20194;-84
2022/09/08 12:29:34;;;;;;;944.35;858.35;;;21.50;99.90;;;;;;5082561;28;20190;-83
2022/09/08 12:32:24;;;;;;;933.80;848.28;;;21.50;99.90;;;;;;5087933;28;20185;-82
2022/09/08 12:35:09;;;;;;;962.13;875.63;;;21.50;99.90;;;;;;5080525;28;20211;-83
2022/09/08 12:37:49;;;;;;;959.55;873.00;;;21.50;99.90;;;;;;5085003;28;20198;-83
2022/09/08 12:40:54;;;;;;;954.53;868.42;;;21.50;99.90;;;;;;5084969;28;20209;-83
2022/09/08 12:43:23;;;;;;;934.63;848.75;;;21.50;99.90;;;;;;5091033;28;20197;-87
2022/09/08 12:46:14;;;;;;;957.75;871.50;;;21.50;99.90;;;;;;5080159;28;20198;-81
2022/09/08 12:48:53;;;;;;;938.72;852.92;;;21.50;99.90;;;;;;5082574;28;20248;-79
2022/09/08 12:51:25;;;;;;;958.53;872.15;;;21.50;99.90;;;;;;5074087;28;20226;-77
2022/09/08 12:54:21;;;;;;;936.53;850.55;;;21.50;99.90;;;;;;5086911;28;20568;-80